Time;durP1;ratioP1;P1;durP2;ratioP2;P2;SDS_P1;SDS_P2;PMS_P1;PMS_P2;Temp;Humidity;BMP_temperature;BMP_pressure;BME280_temperature;BME280_humidity;BME280_pressure;Samples;Min_cycle;Max_cycle;Signal;HPM_P1;HPM_P2
2022/05/07 00:02:08;;;;;;;15.35;10.52;;;13.30;99.90;;;;;;5004494;28;20527;-72
2022/05/07 00:04:35;;;;;;;14.13;9.88;;;13.10;99.90;;;;;;5005967;28;20491;-72
2022/05/07 00:07:01;;;;;;;14.15;10.25;;;13.10;99.90;;;;;;5012830;28;20547;-72
2022/05/07 00:09:27;;;;;;;14.35;9.50;;;13.00;99.90;;;;;;4998550;28;20045;-72
2022/05/07 00:11:53;;;;;;;13.80;8.73;;;13.00;99.90;;;;;;5004573;28;20026;-72
2022/05/07 00:14:18;;;;;;;10.13;6.75;;;12.90;99.90;;;;;;5012017;28;20034;-72
2022/05/07 00:19:28;;;;;;;10.38;7.93;;;13.10;99.90;;;;;;5009455;28;20045;-72
2022/05/07 00:21:54;;;;;;;16.20;10.88;;;13.20;99.90;;;;;;5012566;28;20030;-71
2022/05/07 00:24:19;;;;;;;23.33;12.98;;;13.20;99.90;;;;;;5006916;28;20397;-72
2022/05/07 00:26:45;;;;;;;17.35;11.02;;;13.10;99.90;;;;;;5013560;28;20029;-72
2022/05/07 00:29:12;;;;;;;12.70;9.20;;;13.10;99.90;;;;;;5003309;28;20042;-72
2022/05/07 00:31:38;;;;;;;12.07;9.10;;;13.10;99.90;;;;;;5015416;28;20033;-72
2022/05/07 00:34:05;;;;;;;14.18;9.90;;;13.10;99.90;;;;;;5007657;28;20038;-72
2022/05/07 00:36:30;;;;;;;14.88;11.00;;;13.10;99.90;;;;;;5005517;28;20061;-73
2022/05/07 00:38:56;;;;;;;15.27;7.50;;;13.10;99.90;;;;;;5010622;28;20459;-72
2022/05/07 00:41:22;;;;;;;17.77;11.05;;;13.20;99.90;;;;;;5003342;28;20079;-72
2022/05/07 00:43:47;;;;;;;18.35;13.20;;;13.20;99.90;;;;;;5006165;28;20480;-72
2022/05/07 00:46:14;;;;;;;21.50;12.85;;;13.20;99.90;;;;;;5009800;28;20480;-72
2022/05/07 00:48:40;;;;;;;18.67;13.48;;;13.10;99.90;;;;;;4998743;28;20065;-71
2022/05/07 00:53:51;;;;;;;17.17;12.82;;;13.10;99.90;;;;;;5006129;28;20072;-72
2022/05/07 00:56:17;;;;;;;20.42;14.43;;;13.00;99.90;;;;;;5007842;28;20033;-72
2022/05/07 00:58:43;;;;;;;19.85;14.10;;;13.00;99.90;;;;;;5011936;28;20021;-72
2022/05/07 01:01:08;;;;;;;16.92;12.85;;;12.90;99.90;;;;;;5007410;28;20034;-72
2022/05/07 01:03:35;;;;;;;20.55;13.13;;;13.00;99.90;;;;;;5004599;28;20045;-72
2022/05/07 01:06:01;;;;;;;21.63;14.50;;;13.00;99.90;;;;;;5007873;28;20083;-72
2022/05/07 01:08:29;;;;;;;20.15;13.88;;;13.00;99.90;;;;;;5003332;28;20513;-72
2022/05/07 01:10:56;;;;;;;20.13;13.20;;;13.00;99.90;;;;;;5002188;28;20084;-72
2022/05/07 01:13:22;;;;;;;11.00;8.50;;;13.00;99.90;;;;;;5002454;28;21768;-72
2022/05/07 01:15:53;;;;;;;18.13;9.65;;;12.90;99.90;;;;;;5007201;28;20031;-71
2022/05/07 01:18:19;;;;;;;11.05;7.60;;;12.80;99.90;;;;;;5006535;28;20040;-72
2022/05/07 01:20:45;;;;;;;11.25;8.15;;;12.80;99.90;;;;;;5010284;28;20034;-72
2022/05/07 01:23:11;;;;;;;12.68;7.88;;;12.70;99.90;;;;;;5007410;28;20092;-72
2022/05/07 01:25:37;;;;;;;12.77;8.10;;;12.80;99.90;;;;;;5001666;28;20042;-71
2022/05/07 01:28:03;;;;;;;11.65;7.50;;;12.70;99.90;;;;;;5009037;28;20033;-71
2022/05/07 01:30:29;;;;;;;11.82;8.63;;;12.70;99.90;;;;;;5009861;28;20046;-72
2022/05/07 01:32:55;;;;;;;9.15;6.45;;;12.60;99.90;;;;;;5008133;28;20392;-72
2022/05/07 01:35:21;;;;;;;11.75;7.88;;;12.60;99.90;;;;;;5010249;28;20498;-71
2022/05/07 01:37:47;;;;;;;11.02;7.00;;;12.50;99.90;;;;;;5005631;28;20030;-72
2022/05/07 01:40:12;;;;;;;13.05;8.18;;;12.60;99.90;;;;;;5005716;28;20607;-72
2022/05/07 01:42:39;;;;;;;10.38;7.25;;;12.70;99.90;;;;;;5003595;28;20113;-72
2022/05/07 01:45:05;;;;;;;10.57;6.70;;;12.70;99.90;;;;;;5006408;28;20112;-72
2022/05/07 01:50:23;;;;;;;13.55;9.00;;;12.80;99.90;;;;;;5020811;28;20477;-72
2022/05/07 01:52:49;;;;;;;11.40;7.93;;;12.90;99.90;;;;;;5005156;28;20397;-72
2022/05/07 01:55:15;;;;;;;9.05;6.32;;;13.00;99.90;;;;;;5006588;28;20038;-72
2022/05/07 01:57:40;;;;;;;9.18;6.00;;;13.00;99.90;;;;;;5003811;28;20029;-72
2022/05/07 02:00:08;;;;;;;12.93;8.75;;;13.00;99.90;;;;;;5007116;28;20037;-72
2022/05/07 02:02:34;;;;;;;13.20;9.10;;;13.00;99.90;;;;;;5000652;28;20091;-72
2022/05/07 02:05:00;;;;;;;15.32;11.00;;;13.00;99.90;;;;;;5009598;28;20070;-71
2022/05/07 02:07:26;;;;;;;18.02;12.32;;;13.00;99.90;;;;;;5003367;28;20034;-72
2022/05/07 02:09:52;;;;;;;15.00;10.55;;;13.00;99.90;;;;;;5008050;28;20034;-73
2022/05/07 02:12:17;;;;;;;14.73;11.25;;;13.00;99.90;;;;;;4998538;28;20227;-72
2022/05/07 02:14:43;;;;;;;16.60;11.02;;;12.90;99.90;;;;;;5009987;28;20057;-72
2022/05/07 02:17:09;;;;;;;17.27;11.77;;;13.00;99.90;;;;;;5004572;28;20042;-71
2022/05/07 02:19:35;;;;;;;14.27;11.10;;;13.00;99.90;;;;;;5006318;28;20060;-71
2022/05/07 02:22:01;;;;;;;14.88;10.15;;;12.90;99.90;;;;;;5010835;28;20084;-72
2022/05/07 02:24:27;;;;;;;11.48;7.30;;;12.90;99.90;;;;;;5012364;28;20038;-72
2022/05/07 02:26:52;;;;;;;8.23;5.18;;;12.90;99.90;;;;;;5008765;28;20105;-72
2022/05/07 02:29:20;;;;;;;9.02;5.13;;;12.70;99.90;;;;;;5006680;28;20633;-72
2022/05/07 02:32:03;;;;;;;5.93;4.03;;;12.60;99.90;;;;;;5002265;28;20026;-72
2022/05/07 02:34:30;;;;;;;9.00;5.40;;;12.60;99.90;;;;;;4996190;28;20037;-72
2022/05/07 02:36:56;;;;;;;10.02;7.15;;;12.60;99.90;;;;;;5009557;28;20050;-72
2022/05/07 02:39:22;;;;;;;10.40;7.32;;;12.70;99.90;;;;;;4998498;28;20520;-72
2022/05/07 02:44:32;;;;;;;12.07;8.00;;;12.90;99.90;;;;;;5002843;28;20409;-72
2022/05/07 02:46:57;;;;;;;12.85;8.32;;;12.90;99.90;;;;;;5005178;28;20030;-72
2022/05/07 02:49:23;;;;;;;14.35;9.75;;;12.90;99.90;;;;;;5003123;28;20038;-72
2022/05/07 02:51:49;;;;;;;11.85;9.18;;;12.90;99.90;;;;;;5009667;28;20031;-72
2022/05/07 02:54:14;;;;;;;12.23;7.80;;;12.80;99.90;;;;;;5005628;28;20493;-72
2022/05/07 02:56:40;;;;;;;11.98;7.22;;;12.80;99.90;;;;;;5014502;28;20502;-72
2022/05/07 02:59:06;;;;;;;12.23;7.28;;;12.80;99.90;;;;;;4999946;28;20026;-72
2022/05/07 03:01:31;;;;;;;10.93;7.68;;;12.80;99.90;;;;;;5013878;28;20038;-71
2022/05/07 03:03:57;;;;;;;10.38;6.85;;;12.80;99.90;;;;;;5001282;28;20145;-71
2022/05/07 03:06:22;;;;;;;10.68;6.57;;;12.80;99.90;;;;;;5007863;28;20116;-71
2022/05/07 03:08:48;;;;;;;10.15;7.45;;;12.80;99.90;;;;;;4998325;28;20459;-71
2022/05/07 03:11:14;;;;;;;14.43;8.73;;;12.80;99.90;;;;;;4991202;28;20089;-71
2022/05/07 03:13:40;;;;;;;13.07;9.68;;;12.80;99.90;;;;;;4995173;28;20373;-71
2022/05/07 03:16:06;;;;;;;10.75;8.70;;;12.70;99.90;;;;;;5004265;28;20041;-71
2022/05/07 03:18:32;;;;;;;11.05;6.75;;;12.70;99.90;;;;;;4991935;28;20030;-71
2022/05/07 03:21:01;;;;;;;9.52;6.30;;;12.80;99.90;;;;;;5004374;28;20627;-72
2022/05/07 03:23:27;;;;;;;12.27;8.30;;;12.80;99.90;;;;;;4996890;28;20177;-72
2022/05/07 03:25:55;;;;;;;10.15;6.93;;;12.60;99.90;;;;;;5002488;28;20073;-71
2022/05/07 03:28:21;;;;;;;9.40;6.60;;;12.50;99.90;;;;;;5002479;28;20026;-71
2022/05/07 03:30:46;;;;;;;11.80;7.82;;;12.40;99.90;;;;;;5003030;28;20048;-71
2022/05/07 03:33:14;;;;;;;12.05;8.75;;;12.40;99.90;;;;;;4993481;28;20026;-71
2022/05/07 03:35:40;;;;;;;12.23;7.85;;;12.50;99.90;;;;;;5002554;28;20064;-71
2022/05/07 03:38:06;;;;;;;12.85;7.70;;;12.50;99.90;;;;;;5008781;28;20068;-71
2022/05/07 03:40:32;;;;;;;9.65;6.75;;;12.50;99.90;;;;;;5002196;28;20064;-72
2022/05/07 03:42:58;;;;;;;8.07;5.43;;;12.50;99.90;;;;;;5002544;28;20037;-71
2022/05/07 03:45:24;;;;;;;9.23;6.53;;;12.60;99.90;;;;;;5004097;28;20508;-71
2022/05/07 03:47:50;;;;;;;8.05;5.07;;;12.60;99.90;;;;;;5007178;28;20029;-71
2022/05/07 03:50:15;;;;;;;8.25;5.80;;;12.60;99.90;;;;;;5004095;28;20141;-71
2022/05/07 03:55:25;;;;;;;9.43;4.15;;;12.80;99.90;;;;;;5006900;28;20731;-71
2022/05/07 03:57:51;;;;;;;7.30;4.90;;;12.90;99.90;;;;;;5001509;28;20108;-71
2022/05/07 04:00:17;;;;;;;8.10;5.63;;;12.60;99.90;;;;;;5001421;28;20025;-71
2022/05/07 04:02:43;;;;;;;7.90;5.03;;;12.40;99.90;;;;;;4992723;28;20053;-71
2022/05/07 04:05:08;;;;;;;7.80;5.57;;;12.40;99.90;;;;;;4999303;28;20030;-71
2022/05/07 04:07:35;;;;;;;10.20;6.15;;;12.40;99.90;;;;;;4996119;28;20037;-71
2022/05/07 04:10:02;;;;;;;8.27;5.60;;;12.40;99.90;;;;;;4993551;28;20491;-71
2022/05/07 04:12:28;;;;;;;8.80;6.10;;;12.60;99.90;;;;;;5004307;28;20034;-71
2022/05/07 04:14:58;;;;;;;8.57;5.35;;;12.50;99.90;;;;;;4996633;28;21222;-71
2022/05/07 04:17:24;;;;;;;7.25;5.53;;;12.40;99.90;;;;;;5005226;28;20108;-71
2022/05/07 04:19:49;;;;;;;7.55;4.88;;;12.40;99.90;;;;;;5001536;28;20030;-71
2022/05/07 04:22:15;;;;;;;11.70;5.78;;;12.40;99.90;;;;;;5001263;28;20106;-71
2022/05/07 04:24:41;;;;;;;11.93;7.78;;;12.50;99.90;;;;;;4990119;28;20022;-71
2022/05/07 04:27:08;;;;;;;12.15;7.78;;;12.60;99.90;;;;;;4991819;28;20551;-71
2022/05/07 04:29:34;;;;;;;11.75;7.18;;;12.70;99.90;;;;;;4975815;28;20030;-71
2022/05/07 04:31:59;;;;;;;10.50;8.02;;;12.70;99.90;;;;;;4986804;28;20764;-71
2022/05/07 04:34:28;;;;;;;9.75;7.22;;;12.70;99.90;;;;;;4991852;28;20029;-71
2022/05/07 04:36:54;;;;;;;14.27;8.32;;;12.80;99.90;;;;;;4984085;28;20061;-72
2022/05/07 04:39:20;;;;;;;9.50;6.85;;;12.80;99.90;;;;;;4995752;28;21028;-71
2022/05/07 04:41:46;;;;;;;12.50;8.13;;;12.80;99.90;;;;;;4985725;28;20038;-71
2022/05/07 04:44:12;;;;;;;15.88;10.10;;;12.80;99.90;;;;;;4998430;28;20154;-71
2022/05/07 04:46:39;;;;;;;16.15;11.82;;;12.90;99.90;;;;;;5000153;28;20092;-71
2022/05/07 04:49:06;;;;;;;9.88;7.45;;;12.90;99.90;;;;;;4999347;28;20551;-72
2022/05/07 04:51:32;;;;;;;12.45;8.77;;;12.90;99.90;;;;;;4998274;28;20038;-71
2022/05/07 04:53:57;;;;;;;8.48;6.20;;;12.90;99.90;;;;;;4999459;28;20049;-71
2022/05/07 04:56:24;;;;;;;11.98;7.35;;;13.00;99.90;;;;;;4997424;28;20522;-71
2022/05/07 04:58:51;;;;;;;13.90;9.05;;;13.10;99.90;;;;;;4994953;28;20037;-71
2022/05/07 05:01:17;;;;;;;10.38;7.93;;;13.10;99.90;;;;;;5001108;28;20526;-71
2022/05/07 05:03:43;;;;;;;11.35;8.43;;;13.10;99.90;;;;;;4995559;28;20050;-72
2022/05/07 05:06:09;;;;;;;11.70;8.48;;;13.20;99.90;;;;;;5004607;28;20034;-71
2022/05/07 05:08:35;;;;;;;12.85;8.95;;;13.20;99.90;;;;;;5000254;28;20034;-71
2022/05/07 05:11:00;;;;;;;10.77;7.53;;;13.20;99.90;;;;;;5003017;28;20033;-71
2022/05/07 05:13:26;;;;;;;12.07;7.05;;;13.20;99.90;;;;;;4998091;28;20038;-72
2022/05/07 05:15:51;;;;;;;12.15;7.68;;;13.20;99.90;;;;;;5000176;28;20026;-71
2022/05/07 05:18:17;;;;;;;10.98;7.70;;;13.30;99.90;;;;;;5001756;28;20034;-71
2022/05/07 05:20:43;;;;;;;10.32;7.65;;;13.40;99.90;;;;;;4999091;28;20058;-71
2022/05/07 05:23:09;;;;;;;11.70;7.97;;;13.40;99.90;;;;;;5002106;28;20039;-71
2022/05/07 05:25:35;;;;;;;10.68;7.93;;;13.40;99.90;;;;;;4999736;28;20114;-71
2022/05/07 05:28:00;;;;;;;12.50;9.23;;;13.50;99.90;;;;;;4997636;28;20460;-71
2022/05/07 05:30:26;;;;;;;15.43;9.25;;;13.50;99.90;;;;;;5000177;28;20038;-71
2022/05/07 05:32:52;;;;;;;14.43;9.85;;;13.50;99.90;;;;;;5004370;28;20399;-72
2022/05/07 05:35:17;;;;;;;17.23;12.38;;;13.50;99.90;;;;;;5002063;28;20508;-71
2022/05/07 05:37:43;;;;;;;18.83;13.90;;;13.50;99.90;;;;;;5003880;28;20042;-71
2022/05/07 05:40:09;;;;;;;20.13;14.48;;;13.50;99.90;;;;;;4990767;28;20113;-71
2022/05/07 05:42:35;;;;;;;22.60;13.70;;;13.50;99.90;;;;;;4999946;28;20061;-71
2022/05/07 05:45:00;;;;;;;22.02;14.32;;;13.50;99.90;;;;;;4997208;28;20072;-71
2022/05/07 05:47:26;;;;;;;21.60;14.75;;;13.50;99.90;;;;;;5004900;28;20034;-71
2022/05/07 05:49:52;;;;;;;23.00;15.30;;;13.60;99.90;;;;;;4987104;28;20406;-71
2022/05/07 05:52:18;;;;;;;20.55;14.13;;;13.60;99.90;;;;;;4996402;28;20037;-71
2022/05/07 05:54:45;;;;;;;21.80;14.77;;;13.60;99.90;;;;;;4997814;28;20029;-71
2022/05/07 05:57:10;;;;;;;22.45;15.30;;;13.50;99.90;;;;;;4994069;28;20040;-71
2022/05/07 05:59:37;;;;;;;21.95;16.52;;;13.50;99.90;;;;;;4992933;28;20029;-71
2022/05/07 06:02:02;;;;;;;23.00;15.93;;;13.50;99.90;;;;;;4993471;28;20037;-71
2022/05/07 06:04:28;;;;;;;21.48;15.60;;;13.50;99.90;;;;;;5006539;28;20037;-71
2022/05/07 06:06:54;;;;;;;25.05;15.82;;;13.60;99.90;;;;;;4994151;28;20041;-72
2022/05/07 06:09:21;;;;;;;24.42;18.65;;;13.70;99.90;;;;;;4976808;28;20046;-72
2022/05/07 06:11:47;;;;;;;24.17;16.17;;;13.80;99.90;;;;;;4987495;28;20026;-72
2022/05/07 06:14:13;;;;;;;22.83;16.08;;;13.90;99.90;;;;;;4998651;28;20040;-71
2022/05/07 06:16:38;;;;;;;21.42;15.10;;;13.90;99.90;;;;;;4988815;28;20027;-71
2022/05/07 06:19:05;;;;;;;19.10;13.55;;;13.90;99.90;;;;;;4996710;28;20128;-71
2022/05/07 06:21:31;;;;;;;21.98;15.55;;;14.00;99.90;;;;;;4998328;28;20096;-71
2022/05/07 06:27:28;;;;;;;19.40;14.48;;;14.10;99.90;;;;;;5016174;28;20022;-71
2022/05/07 06:29:26;;;;;;;17.83;13.05;;;14.10;99.90;;;;;;4999224;28;20574;-71
2022/05/07 06:31:52;;;;;;;18.67;13.18;;;14.10;99.90;;;;;;5001062;28;20023;-70
2022/05/07 06:34:22;;;;;;;18.40;13.27;;;14.00;99.90;;;;;;5002822;28;20036;-70
2022/05/07 06:36:47;;;;;;;18.75;13.65;;;14.00;99.90;;;;;;4999598;28;20114;-70
2022/05/07 06:39:13;;;;;;;19.02;13.32;;;14.00;99.90;;;;;;4995513;28;20114;-70
2022/05/07 06:41:40;;;;;;;22.85;14.88;;;14.10;99.90;;;;;;5000130;28;20026;-70
2022/05/07 06:44:05;;;;;;;19.00;13.57;;;14.10;99.90;;;;;;5020942;28;20040;-70
2022/05/07 06:46:31;;;;;;;18.77;13.07;;;14.10;99.90;;;;;;4993141;28;20038;-70
2022/05/07 06:48:57;;;;;;;19.73;14.55;;;13.80;99.90;;;;;;4994608;28;20033;-70
2022/05/07 06:51:24;;;;;;;20.08;14.73;;;13.90;99.90;;;;;;5003955;28;20476;-70
2022/05/07 06:53:50;;;;;;;21.02;15.15;;;14.00;99.90;;;;;;5003827;28;20041;-70
2022/05/07 06:56:16;;;;;;;20.98;14.77;;;14.00;99.90;;;;;;5011551;28;20649;-69
2022/05/07 06:58:41;;;;;;;21.95;15.45;;;13.90;99.90;;;;;;4984793;28;20531;-70
2022/05/07 07:01:07;;;;;;;20.35;13.85;;;14.00;99.90;;;;;;4998690;28;20030;-70
2022/05/07 07:03:33;;;;;;;22.92;14.73;;;14.00;99.90;;;;;;4993435;28;20047;-70
2022/05/07 07:06:00;;;;;;;20.63;14.30;;;14.00;99.90;;;;;;4990075;28;20502;-70
2022/05/07 07:08:29;;;;;;;23.38;14.27;;;14.00;99.90;;;;;;5006780;28;20678;-71
2022/05/07 07:10:55;;;;;;;20.92;14.43;;;14.10;99.90;;;;;;4999533;28;20038;-70
2022/05/07 07:13:20;;;;;;;19.58;15.40;;;14.00;99.90;;;;;;4998949;28;20528;-70
2022/05/07 07:15:47;;;;;;;20.52;15.30;;;14.20;99.90;;;;;;4994025;28;20085;-70
2022/05/07 07:18:13;;;;;;;24.42;16.20;;;14.20;99.90;;;;;;4998652;28;20124;-70
2022/05/07 07:20:41;;;;;;;23.20;15.88;;;14.10;99.90;;;;;;4991931;28;20485;-70
2022/05/07 07:23:06;;;;;;;25.25;16.88;;;14.00;99.90;;;;;;4996207;28;20037;-70
2022/05/07 07:25:32;;;;;;;20.23;15.88;;;14.00;99.90;;;;;;4994140;28;20026;-70
2022/05/07 07:27:58;;;;;;;20.77;15.77;;;13.90;99.90;;;;;;5003415;28;20045;-70
2022/05/07 07:30:23;;;;;;;23.55;16.55;;;14.00;99.90;;;;;;4995421;28;20038;-70
2022/05/07 07:32:50;;;;;;;25.02;16.65;;;14.00;99.90;;;;;;5019570;28;20041;-69
2022/05/07 07:35:16;;;;;;;27.67;16.58;;;14.10;99.90;;;;;;4995513;28;20412;-70
2022/05/07 07:37:45;;;;;;;25.10;16.40;;;14.20;99.90;;;;;;5008843;28;20038;-68
2022/05/07 07:40:14;;;;;;;22.40;16.92;;;14.20;99.90;;;;;;4995876;28;20096;-70
2022/05/07 07:42:43;;;;;;;24.92;17.55;;;14.20;99.90;;;;;;4998162;28;20042;-69
2022/05/07 07:47:56;;;;;;;23.33;16.85;;;14.30;99.90;;;;;;5004970;28;20037;-70
2022/05/07 07:50:26;;;;;;;22.58;16.30;;;14.40;99.90;;;;;;5012138;28;20030;-70
2022/05/07 07:52:56;;;;;;;22.85;16.63;;;14.30;99.90;;;;;;5001089;28;20378;-69
2022/05/07 07:55:22;;;;;;;26.65;16.90;;;14.30;99.90;;;;;;4999865;28;20117;-69
2022/05/07 07:57:49;;;;;;;25.33;17.25;;;14.30;99.90;;;;;;5000183;28;20039;-69
2022/05/07 08:00:16;;;;;;;25.15;17.90;;;14.30;99.90;;;;;;4991206;28;20416;-69
2022/05/07 08:02:56;;;;;;;18.77;15.43;;;14.40;99.90;;;;;;4998849;28;20046;-69
2022/05/07 08:05:24;;;;;;;20.17;16.30;;;14.40;99.90;;;;;;4993277;28;20041;-69
2022/05/07 08:13:18;;;;;;;21.10;15.88;;;14.50;99.90;;;;;;4994242;28;20040;-69
2022/05/07 08:15:45;;;;;;;24.15;15.95;;;14.60;99.90;;;;;;4998054;28;20592;-69
2022/05/07 08:18:12;;;;;;;21.05;14.30;;;14.60;99.90;;;;;;4998662;28;20030;-69
2022/05/07 08:20:38;;;;;;;18.15;13.50;;;14.60;99.90;;;;;;5007301;28;20400;-69
2022/05/07 08:23:04;;;;;;;19.92;13.90;;;14.50;99.90;;;;;;5002978;28;20033;-69
2022/05/07 08:25:30;;;;;;;20.17;15.25;;;14.60;99.90;;;;;;5009132;28;20042;-69
2022/05/07 08:27:56;;;;;;;20.55;15.60;;;14.80;99.90;;;;;;5002821;28;20530;-69
2022/05/07 08:30:22;;;;;;;20.05;14.95;;;14.90;99.90;;;;;;5006147;28;20077;-69
2022/05/07 08:32:47;;;;;;;18.58;14.77;;;14.80;99.90;;;;;;5001665;28;20116;-69
2022/05/07 08:35:13;;;;;;;18.23;13.55;;;14.80;99.90;;;;;;4995287;28;20073;-69
2022/05/07 08:37:39;;;;;;;20.85;14.77;;;14.90;99.90;;;;;;4999517;28;20030;-70
2022/05/07 08:40:05;;;;;;;20.10;13.65;;;14.80;99.90;;;;;;4998666;28;20102;-69
2022/05/07 08:42:31;;;;;;;20.80;15.32;;;14.60;99.90;;;;;;5013199;28;20628;-69
2022/05/07 08:44:57;;;;;;;21.60;15.52;;;14.70;99.90;;;;;;5006454;28;20065;-69
2022/05/07 08:47:23;;;;;;;19.63;14.27;;;14.60;99.90;;;;;;5000478;28;20484;-70
2022/05/07 08:49:57;;;;;;;21.48;16.40;;;14.80;99.90;;;;;;4996428;28;20042;-69
2022/05/07 08:52:23;;;;;;;20.92;15.35;;;14.80;99.90;;;;;;4992153;28;20038;-69
2022/05/07 08:54:49;;;;;;;19.90;15.23;;;14.90;99.90;;;;;;4993184;28;20671;-69
2022/05/07 08:57:15;;;;;;;20.58;15.75;;;14.80;99.90;;;;;;4999034;28;20166;-70
2022/05/07 08:59:43;;;;;;;20.42;14.00;;;14.80;99.90;;;;;;5006202;28;20044;-69
2022/05/07 09:02:09;;;;;;;16.55;13.25;;;14.70;99.90;;;;;;5018235;28;20049;-69
2022/05/07 09:04:36;;;;;;;17.27;13.45;;;14.90;99.90;;;;;;4995656;28;20044;-70
2022/05/07 09:07:03;;;;;;;19.73;14.20;;;15.00;99.90;;;;;;4994465;28;20042;-69
2022/05/07 09:09:31;;;;;;;22.20;16.15;;;15.10;99.90;;;;;;4998187;28;20037;-70
2022/05/07 09:11:58;;;;;;;19.17;14.02;;;15.10;99.90;;;;;;5002712;28;20026;-69
2022/05/07 09:14:30;;;;;;;19.70;14.73;;;15.10;99.90;;;;;;5002304;28;20030;-69
2022/05/07 09:16:59;;;;;;;20.63;14.50;;;15.20;99.90;;;;;;5000224;28;20046;-70
2022/05/07 09:19:30;;;;;;;20.38;13.82;;;15.20;99.90;;;;;;4992038;28;20029;-71
2022/05/07 09:22:10;;;;;;;17.02;13.52;;;15.30;99.90;;;;;;4995862;28;20045;-71
2022/05/07 09:24:37;;;;;;;16.83;13.20;;;15.50;99.90;;;;;;4994878;28;20034;-70
2022/05/07 09:27:04;;;;;;;19.55;13.63;;;15.40;99.90;;;;;;4994858;28;20022;-70
2022/05/07 09:29:31;;;;;;;17.73;12.57;;;15.50;99.90;;;;;;5000609;28;20077;-70
2022/05/07 09:32:08;;;;;;;15.70;11.70;;;15.60;99.90;;;;;;5002132;28;20029;-72
2022/05/07 09:37:38;;;;;;;17.42;11.57;;;15.40;99.90;;;;;;5004707;28;20084;-71
2022/05/07 09:40:09;;;;;;;14.80;11.15;;;15.60;99.90;;;;;;5000656;28;20030;-71
2022/05/07 09:42:35;;;;;;;15.50;11.13;;;15.60;99.90;;;;;;4999653;28;20124;-72
2022/05/07 09:45:03;;;;;;;14.88;10.98;;;15.70;99.90;;;;;;4993068;28;20117;-69
2022/05/07 09:47:29;;;;;;;16.05;11.23;;;15.80;99.90;;;;;;5006273;28;20101;-70
2022/05/07 09:57:30;;;;;;;12.07;9.48;;;15.70;99.90;;;;;;5006882;28;20072;-69
2022/05/07 09:58:18;;;;;;;12.75;9.60;;;16.00;99.90;;;;;;4986902;28;20096;-69
2022/05/07 10:01:16;;;;;;;16.45;11.85;;;16.00;99.90;;;;;;4988075;28;20189;-70
2022/05/07 10:04:02;;;;;;;21.88;17.42;;;16.20;99.90;;;;;;4989030;28;20137;-70
2022/05/07 10:06:37;;;;;;;24.55;18.05;;;16.10;99.90;;;;;;5003139;28;20045;-70
2022/05/07 10:09:33;;;;;;;21.40;15.52;;;16.20;99.90;;;;;;5002510;28;20034;-71
2022/05/07 10:11:59;;;;;;;17.98;13.65;;;16.20;99.90;;;;;;4988398;28;20034;-70
2022/05/07 10:14:30;;;;;;;13.60;10.80;;;16.50;99.90;;;;;;4989046;28;20046;-72
2022/05/07 10:17:08;;;;;;;16.08;11.90;;;16.50;99.90;;;;;;4996828;28;20026;-70
2022/05/07 10:19:35;;;;;;;27.60;20.77;;;16.60;99.90;;;;;;4988736;28;20030;-71
2022/05/07 10:22:01;;;;;;;31.23;22.73;;;16.50;99.90;;;;;;4993565;28;20149;-72
2022/05/07 10:24:27;;;;;;;32.13;21.73;;;16.40;99.90;;;;;;5004422;28;20586;-71
2022/05/07 10:26:52;;;;;;;30.58;21.58;;;16.50;99.90;;;;;;4995082;28;20125;-72
2022/05/07 10:29:27;;;;;;;26.13;19.10;;;16.70;99.90;;;;;;5007288;28;20046;-71
2022/05/07 10:32:03;;;;;;;35.17;24.75;;;16.60;99.90;;;;;;5008914;28;20030;-71
2022/05/07 10:34:29;;;;;;;34.60;24.30;;;16.50;99.90;;;;;;5008835;28;20041;-71
2022/05/07 10:37:05;;;;;;;23.83;17.45;;;16.50;99.90;;;;;;5008659;28;20034;-71
2022/05/07 10:39:32;;;;;;;20.98;15.85;;;16.70;99.90;;;;;;5008629;28;20024;-71
2022/05/07 10:42:00;;;;;;;21.25;17.52;;;16.80;99.90;;;;;;5008702;28;20030;-71
2022/05/07 10:44:43;;;;;;;16.23;12.55;;;16.90;99.90;;;;;;4995119;28;20026;-71
2022/05/07 10:47:13;;;;;;;20.30;14.05;;;17.10;99.90;;;;;;4990539;28;20031;-71
2022/05/07 10:50:06;;;;;;;18.73;14.82;;;17.10;99.90;;;;;;5008495;28;20034;-71
2022/05/07 10:52:34;;;;;;;25.23;19.67;;;17.20;99.90;;;;;;5008308;28;20107;-71
2022/05/07 10:55:08;;;;;;;23.55;19.15;;;17.10;99.90;;;;;;5008479;28;20053;-71
2022/05/07 10:57:52;;;;;;;16.25;12.50;;;17.30;99.90;;;;;;5008176;28;20030;-71
2022/05/07 11:00:19;;;;;;;17.88;12.52;;;17.20;99.90;;;;;;5008357;28;20833;-71
2022/05/07 11:02:48;;;;;;;12.88;10.27;;;17.20;99.90;;;;;;5007825;28;20058;-71
2022/05/07 11:05:15;;;;;;;20.33;14.30;;;17.10;99.90;;;;;;5008531;28;20425;-71
2022/05/07 11:07:42;;;;;;;14.60;12.45;;;17.00;99.90;;;;;;5008372;28;20041;-71
2022/05/07 11:10:09;;;;;;;14.85;10.63;;;17.00;99.90;;;;;;5010223;28;20089;-71
2022/05/07 11:12:35;;;;;;;16.38;11.95;;;16.80;99.90;;;;;;5009949;28;20097;-71
2022/05/07 11:15:07;;;;;;;18.25;14.50;;;16.80;99.90;;;;;;5012191;28;20109;-71
2022/05/07 11:17:35;;;;;;;21.48;14.85;;;17.00;99.90;;;;;;5010733;28;20438;-71
2022/05/07 11:20:02;;;;;;;17.70;13.38;;;17.20;99.90;;;;;;5011573;28;20522;-71
2022/05/07 11:22:32;;;;;;;31.00;19.60;;;17.30;99.90;;;;;;5011531;28;20551;-71
2022/05/07 11:25:02;;;;;;;28.30;19.23;;;17.40;99.90;;;;;;5011809;28;20034;-71
2022/05/07 11:27:34;;;;;;;26.83;16.42;;;17.40;99.90;;;;;;5011664;28;20495;-71
2022/05/07 11:30:04;;;;;;;58.33;36.25;;;17.20;99.90;;;;;;5011237;28;20504;-71
2022/05/07 11:32:41;;;;;;;13.70;9.90;;;17.40;99.90;;;;;;5011422;28;20029;-71
2022/05/07 11:35:08;;;;;;;20.08;13.02;;;17.10;99.90;;;;;;5011645;28;20034;-71
2022/05/07 11:37:42;;;;;;;15.75;11.32;;;17.10;99.90;;;;;;5011737;28;20029;-71
2022/05/07 11:40:09;;;;;;;9.25;7.00;;;17.10;99.90;;;;;;5003240;28;20376;-71
2022/05/07 11:42:35;;;;;;;14.13;5.20;;;17.10;99.90;;;;;;4991597;28;20457;-71
2022/05/07 11:47:59;;;;;;;8.77;6.43;;;17.20;99.90;;;;;;4991779;28;20365;-71
2022/05/07 11:50:30;;;;;;;16.10;9.15;;;17.30;99.90;;;;;;4991613;28;20038;-71
2022/05/07 11:53:08;;;;;;;13.50;9.73;;;17.20;99.90;;;;;;4991611;28;20113;-71
2022/05/07 11:55:33;;;;;;;17.70;11.80;;;17.30;99.90;;;;;;4991127;28;20041;-71
2022/05/07 11:57:59;;;;;;;17.38;10.95;;;17.40;99.90;;;;;;4991233;28;20382;-71
2022/05/07 12:00:27;;;;;;;28.38;16.15;;;17.50;99.90;;;;;;4991449;28;20037;-71
2022/05/07 12:02:57;;;;;;;41.53;24.85;;;17.40;99.90;;;;;;4991055;28;20099;-71
2022/05/07 12:05:25;;;;;;;21.95;13.90;;;17.40;99.90;;;;;;4991379;28;20053;-71
2022/05/07 12:07:52;;;;;;;34.70;19.85;;;17.40;99.90;;;;;;4996696;28;20044;-71
2022/05/07 12:10:19;;;;;;;43.60;23.50;;;17.20;99.90;;;;;;4991318;28;20056;-71
2022/05/07 12:12:47;;;;;;;46.28;25.20;;;17.30;99.90;;;;;;4991112;28;20037;-71
2022/05/07 12:15:13;;;;;;;27.15;15.05;;;17.40;99.90;;;;;;4991044;28;20105;-71
2022/05/07 12:17:55;;;;;;;39.63;21.70;;;17.30;99.90;;;;;;4991309;28;20197;-71
2022/05/07 12:20:24;;;;;;;23.42;13.85;;;17.20;99.90;;;;;;4990336;28;20022;-71
2022/05/07 12:31:17;;;;;;;28.05;15.48;;;17.10;99.90;;;;;;4991022;28;20450;-72
2022/05/07 12:33:42;;;;;;;25.20;14.20;;;17.10;99.90;;;;;;4990556;28;20058;-71
2022/05/07 12:36:08;;;;;;;44.60;21.45;;;16.90;99.90;;;;;;4990517;28;20037;-72
2022/05/07 12:38:34;;;;;;;46.90;23.92;;;17.00;99.90;;;;;;5009147;28;20030;-72
2022/05/07 12:40:59;;;;;;;49.80;24.35;;;16.90;99.90;;;;;;5010412;28;20084;-71
2022/05/07 12:43:26;;;;;;;64.55;32.72;;;16.80;99.90;;;;;;5010338;28;20025;-71
2022/05/07 12:45:52;;;;;;;64.65;35.30;;;16.80;99.90;;;;;;5010211;28;20076;-71
2022/05/07 12:48:18;;;;;;;55.50;32.60;;;16.90;99.90;;;;;;5010151;28;20057;-72
2022/05/07 12:50:46;;;;;;;48.05;28.70;;;17.00;99.90;;;;;;5010034;28;20037;-72
2022/05/07 12:53:14;;;;;;;30.70;17.70;;;17.10;99.90;;;;;;5009153;28;20022;-72
2022/05/07 12:55:41;;;;;;;34.13;21.23;;;17.20;99.90;;;;;;5010054;28;20029;-72
2022/05/07 12:58:08;;;;;;;58.28;33.15;;;17.20;99.90;;;;;;5002182;28;20026;-71
2022/05/07 13:00:35;;;;;;;43.20;24.40;;;17.30;99.90;;;;;;4990614;28;20087;-72
2022/05/07 13:03:02;;;;;;;26.42;16.13;;;17.40;99.90;;;;;;4990209;28;20086;-72
2022/05/07 13:05:29;;;;;;;17.52;11.82;;;17.40;99.90;;;;;;5001049;28;20060;-72
2022/05/07 13:07:55;;;;;;;11.05;7.47;;;17.40;99.90;;;;;;5009975;28;20076;-72
2022/05/07 13:10:21;;;;;;;18.73;8.98;;;17.40;99.90;;;;;;5009171;28;20040;-71
2022/05/07 13:12:46;;;;;;;21.15;11.70;;;17.40;99.90;;;;;;5009505;28;20033;-72
2022/05/07 13:15:12;;;;;;;22.38;10.80;;;17.30;99.90;;;;;;5009478;28;20029;-71
2022/05/07 13:17:38;;;;;;;19.73;10.25;;;17.30;99.90;;;;;;5009433;28;20030;-72